Airfield :
LOGIN :

Register | Disclaimer

   EN    FR    IT 

 










Legend :    VFR   Marginal VFR   IFR   Intensive IFR   Very Intensive IFR
Visi :
Ceiling :
>= 8 km
>= 3000ft
5 to 8 km
1000 to 3000 ft
1500m to 5 km
500 to 1000 ft
800 to 1500m
200 to 500 ft
< 800m
< 200 ft
Symbols :   Thunderstorms  Fog  Heavy snow  Heavy precipitations  Wind > 20 kt
SIGMETs :     Misc.  Thunderstorms  Icing  Turbulence  Mountain Waves  Volcanic Ashes






- Airport Elevation : 121 ft
- IATA code : HUY


EGNJ - Humberside

CURRENT METAR :
  • 020920Z 02011KT 9999 -RA SCT006 BKN010 13/12 Q1009

EXPIRED METARs :
  • 020850Z 02011KT 9999 -RA SCT006 BKN010 13/12 Q1009
  • 020820Z 02013KT 9999 -RA SCT005 BKN009 13/12 Q1008
  • 020750Z 01012KT 9999 -RA BKN004 BKN009 13/12 Q1008
  • 020720Z AUTO 01012KT 9999 RA OVC003/// 13/12 Q1007
  • 020650Z AUTO 02012KT 8000 RA OVC002/// 13/12 Q1007 RERA

TAF TAF EGNJ
Valid from the 02 at 09:00 until the 02 at 18:00 UTC


020802Z 0209/0218 03012KT 9999 BKN010
TEMPO 0209/0213 6000 RA BKN007
PROB40
TEMPO 0209/0212 1200 +RA BR BKN001
BECMG 0212/0215 BKN020
PROB30
TEMPO 0215/0218 BKN014
ATIS : +44 1652 682 020



MET'MAP, your aeronautical weather chart ! - Copyright ORBIFLY December 2007 - Disclaimer

ORBIFLY MET'MAP TEAM :

Programming & Development : Alexandra Zaïnal
Concept & original design : Baudouin d'Aumeries
Assistance for programming : Marc-Olivier Méhu
Technical & hardware support : Manuel Goepfert

Contact : metmap@orbifly.com




SOURCES & CREDITS :

   NOAA